Aviation Digital Data Service (ADDS)

Output produced by TAFs form (2025 UTC 20 July 2017)
found at http://www.aviationweather.gov/adds/tafs/
 
METAR text: ZSOF 202000Z 18003MPS CAVOK 28/24 Q1006 NOSIG
Conditions at: ZSOF (HEFEI/XINGIAO , CN) observed 2000 UTC 20 July 2017
Temperature: 28.0°C (82°F)
Dewpoint: 24.0°C (75°F) [RH = 79%]
Pressure (altimeter): 29.70 inches Hg (1006.0 mb)
Winds: from the S (180 degrees) at 7 MPH (6 knots; 3.1 m/s)
Visibility: 6 or more miles (10+ km)
Ceiling: ceiling and visibility are OK
Clouds: unknown
Weather: no significant weather observed at this time

Forecast for: ZSOF (HEFEI/XINGIAO , CN)
Text: TAF ZSOF 201500Z 2018/2118 18004MPS 4000 HZ NSC TX38/2107Z TN27/2022Z
Forecast period: 1800 UTC 20 July 2017 to 1800 UTC 21 July 2017
Forecast type: FROM: standard forecast or significant change
Winds: from the S (180 degrees) at 9 MPH (8 knots; 4.2 m/s)
Visibility: 2.49 miles (4.01 km)
Clouds: not forecast
Weather: HZ  (haze)